createdAt,value
2018-09-06T00:00:19.349Z,60.30
2018-09-06T00:04:22.676Z,60.20
2018-09-06T00:08:26.021Z,59.80
2018-09-06T00:12:29.381Z,60.50
2018-09-06T00:16:32.744Z,60.20
2018-09-06T00:20:36.144Z,60.10
2018-09-06T00:24:39.545Z,60.10
2018-09-06T00:28:42.884Z,61.00
2018-09-06T00:32:46.250Z,61.30
2018-09-06T00:36:49.597Z,60.70
2018-09-06T00:40:52.959Z,60.80
2018-09-06T00:44:56.301Z,61.00
2018-09-06T00:49:00.005Z,61.30
2018-09-06T00:53:03.917Z,61.30
2018-09-06T00:57:07.407Z,60.90
2018-09-06T01:01:10.812Z,60.80
2018-09-06T01:05:14.163Z,61.40
2018-09-06T01:09:17.511Z,61.00
2018-09-06T01:13:20.883Z,60.90
2018-09-06T01:17:24.228Z,61.30
2018-09-06T01:21:27.640Z,61.40
2018-09-06T01:25:36.378Z,61.60
2018-09-06T01:29:39.899Z,60.90
2018-09-06T01:33:43.263Z,62.30
2018-09-06T01:37:46.595Z,61.30
2018-09-06T01:41:49.991Z,63.30
2018-09-06T01:45:53.338Z,61.30
2018-09-06T01:49:56.743Z,61.80
2018-09-06T01:54:00.179Z,61.50
2018-09-06T01:58:03.559Z,61.70
2018-09-06T02:02:07.290Z,61.40
2018-09-06T02:06:11.846Z,62.30
2018-09-06T02:10:15.220Z,62.50
2018-09-06T02:14:18.612Z,62.40
2018-09-06T02:18:21.942Z,61.50
2018-09-06T02:22:25.282Z,62.20
2018-09-06T02:26:28.621Z,62.20
2018-09-06T02:30:31.964Z,66.10
2018-09-06T02:34:35.342Z,62.10
2018-09-06T02:38:38.699Z,62.50
2018-09-06T02:42:42.174Z,62.10
2018-09-06T02:46:45.548Z,62.40
2018-09-06T02:50:54.383Z,62.90
2018-09-06T02:54:57.727Z,62.90
2018-09-06T02:59:01.108Z,63.70
2018-09-06T03:03:04.460Z,63.10
2018-09-06T03:07:07.842Z,64.60
2018-09-06T03:11:27.619Z,66.30
2018-09-06T03:15:31.056Z,63.00
2018-09-06T03:19:34.374Z,63.50
2018-09-06T03:23:37.748Z,63.20
2018-09-06T03:27:41.095Z,63.70
2018-09-06T03:31:45.088Z,64.70
2018-09-06T03:35:48.472Z,65.20
2018-09-06T03:39:51.806Z,64.40
2018-09-06T03:43:55.226Z,64.20
2018-09-06T03:47:58.575Z,65.70
2018-09-06T03:52:01.940Z,63.80
2018-09-06T03:56:05.283Z,65.30
2018-09-06T04:00:08.655Z,63.70
2018-09-06T04:04:12.005Z,62.90
2018-09-06T04:08:15.432Z,63.30
2018-09-06T04:12:18.768Z,64.00
2018-09-06T04:16:22.136Z,64.90
2018-09-06T04:20:25.552Z,66.70
2018-09-06T04:24:29.022Z,65.30
2018-09-06T04:28:32.324Z,63.60
2018-09-06T04:32:35.660Z,66.00
2018-09-06T04:36:40.574Z,65.80
2018-09-06T04:40:44.084Z,64.50
2018-09-06T04:44:47.787Z,64.50
2018-09-06T04:48:51.520Z,64.30
2018-09-06T04:52:54.911Z,64.30
2018-09-06T04:56:58.271Z,64.40
2018-09-06T05:01:02.036Z,65.00
2018-09-06T05:05:05.992Z,64.50
2018-09-06T05:09:10.255Z,64.50
2018-09-06T05:13:13.602Z,65.30
2018-09-06T05:17:17.006Z,65.80
2018-09-06T05:21:20.418Z,66.70
2018-09-06T05:25:23.794Z,65.60
2018-09-06T05:29:27.167Z,68.40
2018-09-06T05:33:30.512Z,65.00
2018-09-06T05:37:34.744Z,65.00
2018-09-06T05:41:38.508Z,64.50
2018-09-06T05:45:42.383Z,65.50
2018-09-06T05:49:45.747Z,64.70
2018-09-06T05:53:49.156Z,65.50
2018-09-06T05:57:53.148Z,65.10
2018-09-06T06:01:56.539Z,65.50
2018-09-06T06:05:59.896Z,64.90
2018-09-06T06:10:03.310Z,65.40
2018-09-06T06:14:06.670Z,64.90
2018-09-06T06:18:10.056Z,65.30
2018-09-06T06:22:13.420Z,65.10
2018-09-06T06:26:16.788Z,64.90
2018-09-06T06:30:20.172Z,65.10
2018-09-06T06:34:23.532Z,64.50
2018-09-06T06:38:26.927Z,65.10
2018-09-06T06:42:30.332Z,65.60
2018-09-06T06:46:33.941Z,66.60
2018-09-06T06:50:37.367Z,67.00
2018-09-06T06:54:40.751Z,65.70
2018-09-06T06:58:44.128Z,65.70
2018-09-06T07:02:47.512Z,66.50
2018-09-06T07:06:50.936Z,67.50
2018-09-06T07:10:54.296Z,65.00
2018-09-06T07:14:57.660Z,64.90
2018-09-06T07:19:01.049Z,65.50
2018-09-06T07:23:04.448Z,63.60
2018-09-06T07:27:07.845Z,63.70
2018-09-06T07:31:11.225Z,65.20
2018-09-06T07:35:14.672Z,64.10
2018-09-06T07:39:18.012Z,64.90
2018-09-06T07:43:21.437Z,63.50
2018-09-06T07:47:24.851Z,68.10
2018-09-06T07:51:28.279Z,64.30
2018-09-06T07:55:31.608Z,63.80
2018-09-06T07:59:35.213Z,66.60
2018-09-06T08:03:38.599Z,64.70
2018-09-06T08:07:42.000Z,65.00
2018-09-06T08:11:45.376Z,64.20
2018-09-06T08:15:52.945Z,64.40
2018-09-06T08:19:56.337Z,64.00
2018-09-06T08:23:59.768Z,64.40
2018-09-06T08:28:03.134Z,64.30
2018-09-06T08:32:06.692Z,64.30
2018-09-06T08:36:10.008Z,64.60
2018-09-06T08:40:13.387Z,64.20
2018-09-06T08:44:16.732Z,64.40
2018-09-06T08:48:20.097Z,64.70
2018-09-06T08:52:23.541Z,64.40
2018-09-06T08:56:26.868Z,64.30
2018-09-06T09:00:30.220Z,64.20
2018-09-06T09:04:33.611Z,64.10
2018-09-06T09:08:36.991Z,62.80
2018-09-06T09:12:40.391Z,63.60
2018-09-06T09:16:43.750Z,63.30
2018-09-06T09:20:47.176Z,63.10
2018-09-06T09:24:50.515Z,62.10
2018-09-06T09:28:53.902Z,62.40
2018-09-06T09:32:57.339Z,62.40
2018-09-06T09:37:00.693Z,63.00
2018-09-06T09:41:04.079Z,62.70
2018-09-06T09:45:07.431Z,62.30
2018-09-06T09:49:10.780Z,62.50
2018-09-06T09:53:14.125Z,63.20
2018-09-06T09:57:17.788Z,63.00
2018-09-06T10:01:21.142Z,62.20
2018-09-06T10:05:29.858Z,62.60
2018-09-06T10:09:33.241Z,61.90
2018-09-06T10:13:36.583Z,62.90
2018-09-06T10:17:39.927Z,61.90
2018-09-06T10:21:43.559Z,61.80
2018-09-06T10:25:46.932Z,56.70
2018-09-06T10:29:50.285Z,61.30
2018-09-06T10:33:53.653Z,60.20
2018-09-06T10:37:57.031Z,59.00
2018-09-06T10:42:00.382Z,59.40
2018-09-06T10:46:03.735Z,58.90
2018-09-06T10:50:07.109Z,57.10
2018-09-06T10:54:10.481Z,59.30
2018-09-06T10:58:13.800Z,57.70
2018-09-06T11:02:17.244Z,59.20
2018-09-06T11:06:20.664Z,57.40
2018-09-06T11:10:24.064Z,59.30
2018-09-06T11:14:27.450Z,56.90
2018-09-06T11:18:30.780Z,57.10
2018-09-06T11:22:34.368Z,58.00
2018-09-06T11:26:37.557Z,58.40
2018-09-06T11:30:41.038Z,55.50
2018-09-06T11:34:44.416Z,57.90
2018-09-06T11:38:47.753Z,57.70
2018-09-06T11:42:51.117Z,57.50
2018-09-06T11:46:54.532Z,56.00
2018-09-06T11:51:03.217Z,51.50
2018-09-06T11:55:06.799Z,54.30
2018-09-06T11:59:10.132Z,53.90
2018-09-06T12:03:14.117Z,56.40
2018-09-06T12:07:17.479Z,55.80
2018-09-06T12:11:20.892Z,54.10
2018-09-06T12:15:24.255Z,55.30
2018-09-06T12:19:27.648Z,54.60
2018-09-06T12:23:30.992Z,56.30
2018-09-06T12:27:34.497Z,55.60
2018-09-06T12:31:37.982Z,54.50
2018-09-06T12:35:41.321Z,54.40
2018-09-06T12:39:45.769Z,54.40
2018-09-06T12:43:49.132Z,55.50
2018-09-06T12:47:52.523Z,54.40
2018-09-06T12:51:55.888Z,54.10
2018-09-06T12:55:59.324Z,54.40
2018-09-06T13:00:02.753Z,55.60
2018-09-06T13:04:06.552Z,55.80
2018-09-06T13:08:10.032Z,56.30
2018-09-06T13:12:13.352Z,56.80
2018-09-06T13:16:16.707Z,57.30
2018-09-06T13:20:20.063Z,57.60
2018-09-06T13:24:23.411Z,59.00
2018-09-06T13:28:26.939Z,59.60
2018-09-06T13:32:30.288Z,61.30
2018-09-06T13:36:33.633Z,59.40
2018-09-06T13:40:36.972Z,60.70
2018-09-06T13:44:40.325Z,60.70
2018-09-06T13:48:43.671Z,62.00
2018-09-06T13:52:47.052Z,62.40
2018-09-06T13:56:50.503Z,62.40
2018-09-06T14:00:53.838Z,62.90
2018-09-06T14:04:57.340Z,64.10
2018-09-06T14:09:00.856Z,65.10
2018-09-06T14:13:04.227Z,64.10
2018-09-06T14:17:08.255Z,63.20
2018-09-06T14:21:11.636Z,63.70
2018-09-06T14:25:15.027Z,63.70
2018-09-06T14:29:18.384Z,62.40
2018-09-06T14:33:21.770Z,62.10
2018-09-06T14:37:25.197Z,62.30
2018-09-06T14:41:28.585Z,62.40
2018-09-06T14:45:32.260Z,62.50
2018-09-06T14:49:36.101Z,62.00
2018-09-06T14:53:40.161Z,63.10
2018-09-06T14:57:43.736Z,62.40
2018-09-06T15:01:47.709Z,62.40
2018-09-06T15:05:51.440Z,62.20
2018-09-06T15:09:55.057Z,62.60
2018-09-06T15:13:59.590Z,62.90
2018-09-06T15:18:03.110Z,63.50
2018-09-06T15:22:06.933Z,62.90
2018-09-06T15:26:10.466Z,64.30
2018-09-06T15:30:14.263Z,63.80
2018-09-06T15:34:18.062Z,64.60
2018-09-06T15:38:21.677Z,63.90
2018-09-06T15:42:25.250Z,63.80
2018-09-06T15:46:28.822Z,63.10
2018-09-06T15:50:33.302Z,63.60
2018-09-06T15:54:36.853Z,64.40
2018-09-06T15:58:40.511Z,63.20
2018-09-06T16:02:44.247Z,63.30
2018-09-06T16:06:47.855Z,63.10
2018-09-06T16:10:51.602Z,63.70
2018-09-06T16:14:55.159Z,65.10
2018-09-06T16:18:58.625Z,63.70
2018-09-06T16:23:02.324Z,65.50
2018-09-06T16:27:06.276Z,64.80
2018-09-06T16:31:10.124Z,64.20
2018-09-06T16:35:13.765Z,66.20
2018-09-06T16:39:17.423Z,66.30
2018-09-06T16:43:24.796Z,65.90
2018-09-06T16:47:28.397Z,65.70
2018-09-06T16:51:32.153Z,65.60
2018-09-06T16:55:35.776Z,65.10
2018-09-06T16:59:39.626Z,65.00
2018-09-06T17:03:43.200Z,64.60
2018-09-06T17:07:52.300Z,64.80
2018-09-06T17:11:55.842Z,65.00
2018-09-06T17:16:00.293Z,64.00
2018-09-06T17:20:03.967Z,63.90
2018-09-06T17:24:07.594Z,64.10
2018-09-06T17:28:11.966Z,64.40
2018-09-06T17:32:15.717Z,65.10
2018-09-06T17:36:19.380Z,64.50
2018-09-06T17:40:23.268Z,64.80
2018-09-06T17:44:26.848Z,64.60
2018-09-06T17:48:30.511Z,64.80
2018-09-06T17:52:34.181Z,64.50
2018-09-06T17:56:37.715Z,64.70
2018-09-06T18:00:44.687Z,64.30
2018-09-06T18:04:48.170Z,64.90
2018-09-06T18:08:51.738Z,68.70
2018-09-06T18:12:55.424Z,66.30
2018-09-06T18:16:59.078Z,64.90
2018-09-06T18:21:02.821Z,65.00
2018-09-06T18:25:06.735Z,64.80
2018-09-06T18:29:10.466Z,64.40
2018-09-06T18:33:14.130Z,65.40
2018-09-06T18:37:17.747Z,65.50
2018-09-06T18:41:21.284Z,64.80
2018-09-06T18:45:25.133Z,64.20
2018-09-06T18:49:33.197Z,65.00
2018-09-06T18:53:36.732Z,65.20
2018-09-06T18:57:40.629Z,65.10
2018-09-06T19:01:44.268Z,66.00
2018-09-06T19:05:47.882Z,65.00
2018-09-06T19:09:51.720Z,64.50
2018-09-06T19:13:55.198Z,65.50
2018-09-06T19:17:59.028Z,66.30
2018-09-06T19:22:02.618Z,66.00
2018-09-06T19:26:06.385Z,64.80
2018-09-06T19:30:10.293Z,67.30
2018-09-06T19:34:13.878Z,66.70
2018-09-06T19:38:17.638Z,65.80
2018-09-06T19:42:21.242Z,66.10
2018-09-06T19:46:25.003Z,66.10
2018-09-06T19:50:28.683Z,66.50
2018-09-06T19:54:32.488Z,66.90
2018-09-06T19:58:36.153Z,67.00
2018-09-06T20:02:39.894Z,66.90
2018-09-06T20:06:43.460Z,67.60
2018-09-06T20:10:48.056Z,66.20
2018-09-06T20:14:51.707Z,67.40
2018-09-06T20:18:55.578Z,66.10
2018-09-06T20:22:59.125Z,67.60
2018-09-06T20:27:02.491Z,67.00
2018-09-06T20:31:06.978Z,67.30
2018-09-06T20:35:10.466Z,66.80
2018-09-06T20:39:14.613Z,67.10
2018-09-06T20:43:18.482Z,67.30
2018-09-06T20:47:22.281Z,66.70
2018-09-06T20:51:25.732Z,66.40
2018-09-06T20:55:29.283Z,66.50
2018-09-06T20:59:33.616Z,67.70
2018-09-06T21:03:37.228Z,67.60
2018-09-06T21:07:40.860Z,68.60
2018-09-06T21:11:44.587Z,68.10
2018-09-06T21:15:48.368Z,68.20
2018-09-06T21:19:51.876Z,68.20
2018-09-06T21:23:55.363Z,66.40
2018-09-06T21:27:59.850Z,67.70
2018-09-06T21:32:04.077Z,67.40
2018-09-06T21:36:07.701Z,67.50
2018-09-06T21:40:12.237Z,67.80
2018-09-06T21:44:16.460Z,67.20
2018-09-06T21:48:20.479Z,67.80
2018-09-06T21:52:23.830Z,67.80
2018-09-06T21:56:27.188Z,68.30
2018-09-06T22:00:31.428Z,69.00
2018-09-06T22:04:34.816Z,67.20
2018-09-06T22:08:38.212Z,67.30
2018-09-06T22:12:41.572Z,67.80
2018-09-06T22:16:44.921Z,67.60
2018-09-06T22:20:48.291Z,68.10
2018-09-06T22:24:51.636Z,67.40
2018-09-06T22:28:55.027Z,72.10
2018-09-06T22:32:58.367Z,69.40
2018-09-06T22:37:01.799Z,67.40
2018-09-06T22:41:05.495Z,68.20
2018-09-06T22:45:08.847Z,67.80
2018-09-06T22:49:12.233Z,67.80
2018-09-06T22:53:16.702Z,67.70
2018-09-06T22:57:20.084Z,68.00
2018-09-06T23:01:23.437Z,69.50
2018-09-06T23:05:26.836Z,69.50
2018-09-06T23:09:30.271Z,68.90
2018-09-06T23:13:33.774Z,69.50
2018-09-06T23:17:37.119Z,69.50
2018-09-06T23:21:40.449Z,68.70
2018-09-06T23:25:43.803Z,70.80
2018-09-06T23:29:47.143Z,68.40
2018-09-06T23:33:50.782Z,70.30
2018-09-06T23:37:54.805Z,71.10
2018-09-06T23:41:58.168Z,72.00
2018-09-06T23:46:01.508Z,74.70
2018-09-06T23:50:04.911Z,71.40
2018-09-06T23:54:08.292Z,72.00
2018-09-06T23:58:11.660Z,75.60
